International Virtual Aviation Organisation

Eastern Europe and Northern Asia MCD

 

Карточка аэропорта URKK

Внимание!
Информация на этой странице в стадии наполнения.
Если вы не увидели какой-то информации, или заметили неточность - пожалуйста сообщите нам!
Спасибо!
Команда RU-STAFF
Название аэропортаПашковский
Название аэропорта (англ.)Pashkovskiy
Превышение118 ft. (36 m.)
Координаты45°2.0820000000001', 39°10.218'
Высота перехода900m
Эшелон переходаFL050
Коды ответчика1030-1037
Зона ОрВДРостов-на-Дону РПИ (URRV)
Данные METARURKK 131900Z 28002MPS 9999 BKN033 11/09 Q1020 R23L/CLRD70 NOSIG RMK QFE762
Проноз погоды (TAF)URKK 131654Z 1318/1418 24003G08MPS 6000 BKN016CB TEMPO 1318/1406 3100 -SHRA BR SCT011 BKN016CB FM140600 22003G08MPS 9999 SCT030CB TEMPO 1406/1416 -SHRA SCT016 BKN030CB
NOTAMshow/hide NOTAM
AWOS   TABLE

Информация о ВПП

ВПП Длина ВПП (м.) Покрытие Курс ВПП Частота ILS
05L2200Асфальтобетон46 
23R2200Асфальтобетон226 
05C2400Цементобетон46 
23C3000Железобетон226111.3
05R3000Железобетон46 
23L3000Железобетон226 

Диспетчерские позиции

Позывной Наименование органа УВД Частота
URKK_APPКраснодар-Подход129.6
URKK_R_APPКраснодар-Круг121.3
URKK_TWRКраснодар-Вышка120.6
URKK_GNDКраснодар-Руление119.0



Спутниковое изображение